Westervoort, Netherlands
Current Conditions -  °F | °C
As of 10:25 PM on Friday 24 Oct 2014 (Local Time) from EHDL Reporting Station
Haze Haze  
Wind Chill: 52°   Ceiling: 800
Heat Index: 52°   Visibility: 4mi
Dew Point: 52°   Wind: 9mph
Humidity: 100%   Direction: 180°S
Pressure: 30"   Gusts: NA
Location:  51.96°N, 5.97°E
Report Text: EHDL 242025Z AUTO 18008KT 7000 BR FEW006 BKN008 OVC010 11/11 Q1016 GRN
Loading
Personal Weather Stations






























Interactive Weather Map
Tropical Storm Tracking
New forecast layout! Learn more

10-Day Weather Forecast

Advertisements
Track Severe Weather on mobile